M I D A S
Marine Information and Data Acquisition System
Tripno 2114 of the Zeeleeuw from 2011-06-01 08:00:57 to 2011-06-01 09:49:34
Back to CruiseResearch ActivitiesStationsMapUnderway DataData graphs

EquipmentUnitsComment
TimeDGPSUTC
LatitudeDGPSDM.mWGS84
LongitudeDGPSDM.mWGS84
HeadingGyrodeg 
SOGDGPSknotsSpeed over ground
COGDGPSdegCourse over ground
DepthEcho soundermeters200 kHz
Missing or incorrect values are displayed as -999
Navigation data collected by the RV Zeeleeuw from 2011-06-01 07:30:13 to 2011-06-01 09:49:34
Time Latitude Longitude Heading SOG COG Depth
2011-06-01 07:31:18 51°13.646 2°55.962 111.5 4.2 292 -999
2011-06-01 07:32:18 51°13.668 2°55.863 112.1 3.7 289 -999
2011-06-01 07:33:19 51°13.692 2°55.768 113.8 3.3 292 -999
2011-06-01 07:34:17 51°13.703 2°55.726 104.3 0.7 84 12
2011-06-01 07:35:15 51°13.702 2°55.738 57.6 1 231 11.6
2011-06-01 07:36:15 51°13.723 2°55.754 8.1 0.9 25 10.7
2011-06-01 07:37:18 51°13.708 2°55.761 351.3 0.3 4 -999
2011-06-01 07:38:18 51°13.758 2°55.714 324.5 4.9 322 9.1
2011-06-01 07:39:16 51°13.826 2°55.636 332.2 5.3 331 10.2
2011-06-01 07:40:14 51°13.906 2°55.577 340 5.5 337 10
2011-06-01 07:41:14 51°13.992 2°55.521 338 5.5 337 9.8
2011-06-01 07:42:14 51°14.079 2°55.458 336.9 6.2 335 9.8
2011-06-01 07:43:16 51°14.184 2°55.374 334.5 8 332 -999
2011-06-01 07:44:16 51°14.31 2°55.246 328.1 9.5 326 9.6
2011-06-01 07:45:15 51°14.454 2°55.098 327 11 324 10.2
2011-06-01 07:46:14 51°14.594 2°54.907 322.1 11.4 316 10.9
2011-06-01 07:47:14 51°14.752 2°54.701 333.2 12.7 328 10.8
2011-06-01 07:48:14 51°14.933 2°54.525 331.7 12.7 324 10.5
2011-06-01 07:49:14 51°15.063 2°54.265 304.4 12.6 297 6
2011-06-01 07:50:14 51°15.106 2°53.938 267.5 13.4 261 8.9
2011-06-01 07:51:14 51°15.039 2°53.594 250.7 13.7 246 9.2
2011-06-01 07:52:14 51°14.927 2°53.277 245.4 13.7 245 9
2011-06-01 07:53:14 51°14.86 2°52.932 259.2 13.6 255 9.3
2011-06-01 07:54:14 51°14.797 2°52.586 253.7 13.6 249 9.1
2011-06-01 07:55:14 51°14.709 2°52.252 251.4 13.6 247 9
2011-06-01 07:56:14 51°14.621 2°52.005 232.2 8 230 9.4
2011-06-01 07:57:15 51°14.547 2°51.876 232.7 5.9 229 9.2
2011-06-01 07:58:15 51°14.494 2°51.749 244.2 5.7 240 9
2011-06-01 07:59:15 51°14.447 2°51.619 244.7 5.7 240 9
2011-06-01 08:00:15 51°14.407 2°51.489 254.6 5.3 248 8.9
2011-06-01 08:01:15 51°14.381 2°51.36 260.9 5 253 8.9
2011-06-01 08:02:15 51°14.354 2°51.24 256.9 4.6 248 9
2011-06-01 08:03:15 51°14.325 2°51.134 250.6 4.3 243 9
2011-06-01 08:04:15 51°14.288 2°51.036 242.7 4.3 237 8.8
2011-06-01 08:05:15 51°14.249 2°50.944 240.6 4.2 236 8.7
2011-06-01 08:06:15 51°14.212 2°50.849 249.1 4.1 241 8.8
2011-06-01 08:07:15 51°14.184 2°50.751 256.5 4.1 247 8.6
2011-06-01 08:08:15 51°14.16 2°50.651 259.9 4 250 8.8
2011-06-01 08:09:15 51°14.136 2°50.553 257.5 4 248 8.7
2011-06-01 08:10:15 51°14.111 2°50.454 256.5 4.1 247 8.5
2011-06-01 08:11:15 51°14.084 2°50.356 253.8 4 244 8.7
2011-06-01 08:12:15 51°14.054 2°50.259 251.2 4 242 8.7
2011-06-01 08:13:14 51°14.023 2°50.166 249.4 4 242 8.6
2011-06-01 08:14:15 51°13.991 2°50.071 249.5 4 242 8.6
2011-06-01 08:15:15 51°13.96 2°49.976 251 4.1 243 8.5
2011-06-01 08:16:15 51°13.93 2°49.88 252.3 4.1 243 8.5
2011-06-01 08:17:15 51°13.901 2°49.782 254.3 4 244 8.5
2011-06-01 08:18:15 51°13.873 2°49.683 253.2 4.1 244 8.6
2011-06-01 08:19:15 51°13.843 2°49.586 251.4 4.1 243 8.5
2011-06-01 08:20:15 51°13.811 2°49.491 249.2 4.1 242 8.5
2011-06-01 08:21:14 51°13.779 2°49.397 249 4.1 241 8.7
2011-06-01 08:22:15 51°13.746 2°49.299 250.6 4.1 242 8.8
2011-06-01 08:23:14 51°13.718 2°49.203 256.4 4 248 9
2011-06-01 08:24:14 51°13.699 2°49.104 268.6 3.8 256 9.2
2011-06-01 08:25:14 51°13.689 2°49.005 274.8 3.8 262 8.7
2011-06-01 08:26:14 51°13.679 2°48.905 273 3.9 260 8.1
2011-06-01 08:27:14 51°13.667 2°48.804 273 3.8 259 9.2
2011-06-01 08:28:14 51°13.656 2°48.704 271.2 3.8 259 9.3
2011-06-01 08:29:15 51°13.643 2°48.6 269.6 3.9 258 9.8
2011-06-01 08:30:15 51°13.623 2°48.5 259.1 4 249 9.7
2011-06-01 08:31:15 51°13.596 2°48.401 254.7 4.1 245 9.6
2011-06-01 08:32:15 51°13.57 2°48.302 257.6 4 248 10
2011-06-01 08:33:15 51°13.554 2°48.201 275.7 3.7 263 9.6
2011-06-01 08:34:14 51°13.55 2°48.105 280.6 3.7 267 10.4
2011-06-01 08:35:14 51°13.55 2°48.007 287.7 3.6 271 10.7
2011-06-01 08:36:14 51°13.559 2°47.913 299.1 3.4 282 10.8
2011-06-01 08:37:14 51°13.57 2°47.839 307.5 2.5 281 11
2011-06-01 08:38:15 51°13.576 2°47.783 311.2 1.9 281 11.1
2011-06-01 08:39:14 51°13.595 2°47.719 317 4.2 305 11.2
2011-06-01 08:40:14 51°13.658 2°47.636 341.8 5.1 331 11.3
2011-06-01 08:41:14 51°13.738 2°47.575 347.6 5.4 337 11.5
2011-06-01 08:42:14 51°13.809 2°47.507 337.3 4.4 325 11.6
2011-06-01 08:43:14 51°13.864 2°47.451 346.5 3.6 335 11.6
2011-06-01 08:44:15 51°13.921 2°47.454 29.5 3.5 25 11.6
2011-06-01 08:45:14 51°13.961 2°47.522 53.4 3.8 55 11.7
2011-06-01 08:46:15 51°13.991 2°47.616 63.8 4 68 11.7
2011-06-01 08:47:15 51°14.011 2°47.719 74.1 4.2 82 11.5
2011-06-01 08:48:14 51°14.014 2°47.827 86.1 4.2 93 11.7
2011-06-01 08:49:14 51°13.996 2°47.94 98.7 4.4 110 11.8
2011-06-01 08:50:14 51°13.966 2°48.05 103.4 4.5 115 11.7
2011-06-01 08:51:14 51°13.938 2°48.16 101.6 4.5 112 11.5
2011-06-01 08:52:14 51°13.912 2°48.263 100.4 3.9 112 11.6
2011-06-01 08:53:14 51°13.89 2°48.357 98.7 3.7 111 11.5
2011-06-01 08:54:15 51°13.869 2°48.449 97 3.6 109 11.3
2011-06-01 08:55:15 51°13.849 2°48.54 98.5 3.6 110 11.4
2011-06-01 08:56:15 51°13.828 2°48.628 99.7 3.5 111 11
2011-06-01 08:57:15 51°13.821 2°48.714 77.8 3.1 88 11
2011-06-01 08:58:15 51°13.829 2°48.795 69.5 3.1 77 10.6
2011-06-01 08:59:15 51°13.848 2°48.871 58.7 3.1 64 10.5
2011-06-01 09:00:15 51°13.874 2°48.943 54.6 3.1 59 10.4
2011-06-01 09:01:15 51°13.902 2°49.015 56 3.2 60 10.6
2011-06-01 09:02:15 51°13.928 2°49.091 57.4 3.3 61 10.4
2011-06-01 09:03:14 51°13.954 2°49.166 56.7 3.3 61 10.3
2011-06-01 09:04:15 51°13.982 2°49.242 55.2 3.3 59 10.2
2011-06-01 09:05:14 51°14.01 2°49.314 54.5 3.3 59 10.6
2011-06-01 09:06:14 51°14.04 2°49.386 52.4 3.2 55 10.4
2011-06-01 09:07:15 51°14.072 2°49.458 51.5 3.3 54 10.5
2011-06-01 09:08:14 51°14.103 2°49.528 53.1 3.2 57 10.6
2011-06-01 09:09:15 51°14.129 2°49.607 66.9 3.3 74 10.8
2011-06-01 09:10:15 51°14.134 2°49.692 88.6 3.4 98 10.4
2011-06-01 09:11:15 51°14.106 2°49.781 112.8 3.6 125 10.1
2011-06-01 09:12:15 51°14.059 2°49.834 154.5 3.3 164 9.8
2011-06-01 09:13:15 51°14.013 2°49.843 166.8 2.5 177 9.6
2011-06-01 09:14:15 51°13.978 2°49.839 171.7 2.1 184 9.4
2011-06-01 09:15:14 51°13.946 2°49.838 172.5 1.7 184 9.2
2011-06-01 09:16:15 51°13.917 2°49.835 171.9 1.5 187 9.2
2011-06-01 09:17:14 51°13.896 2°49.827 171.4 1.4 188 9
2011-06-01 09:18:14 51°13.858 2°49.815 206 2.9 210 9.1
2011-06-01 09:19:14 51°13.828 2°49.747 260.7 3.5 254 8.9
2011-06-01 09:20:15 51°13.862 2°49.661 341.9 4.3 342 9.2
2011-06-01 09:21:14 51°13.932 2°49.731 52.1 8.1 54 9.3
2011-06-01 09:22:13 51°14.009 2°49.958 65.7 10.8 66 9.3
2011-06-01 09:23:14 51°14.088 2°50.228 62.5 11.3 62 9.4
2011-06-01 09:24:13 51°14.173 2°50.508 67.6 12.2 68 9.4
2011-06-01 09:25:14 51°14.257 2°50.781 56.9 8.6 56 9.9
2011-06-01 09:26:13 51°14.334 2°51.011 67.2 11.9 68 9.8
2011-06-01 09:27:13 51°14.413 2°51.311 66 12.4 65 9.8
2011-06-01 09:28:13 51°14.501 2°51.61 66.1 12.5 66 9.9
2011-06-01 09:29:14 51°14.585 2°51.92 67.9 12.5 69 10
2011-06-01 09:30:14 51°14.634 2°52.243 77.2 12.5 78 10
2011-06-01 09:31:14 51°14.694 2°52.562 70.6 12.5 71 9.9
2011-06-01 09:32:14 51°14.746 2°52.885 77.6 12.7 78 10.1
2011-06-01 09:33:14 51°14.807 2°53.207 71.1 12.7 71 10.2
2011-06-01 09:34:14 51°14.843 2°53.535 89.7 12.7 92 10
2011-06-01 09:35:13 51°14.831 2°53.864 102.5 12.5 103 9.9
2011-06-01 09:36:14 51°14.776 2°54.195 104.3 12.7 105 10.3
2011-06-01 09:37:14 51°14.698 2°54.513 114 13.1 115 10.6
2011-06-01 09:38:13 51°14.596 2°54.808 122.7 12.9 124 11.8
2011-06-01 09:39:14 51°14.445 2°55.056 142.7 12.8 143 10.3
2011-06-01 09:40:15 51°14.275 2°55.265 145.7 11.3 146 10.8
2011-06-01 09:41:15 51°14.15 2°55.387 153.2 7.1 153 11
2011-06-01 09:42:15 51°14.06 2°55.452 155.4 5.3 155 11
2011-06-01 09:43:17 51°13.964 2°55.523 156 6.6 155 11.2
2011-06-01 09:44:15 51°13.867 2°55.592 156.5 6.8 155 11.3
2011-06-01 09:45:13 51°13.78 2°55.67 146.6 5.5 146 11.7
2011-06-01 09:46:14 51°13.717 2°55.763 130.4 4.7 130 12.5
2011-06-01 09:47:14 51°13.675 2°55.859 122.4 4.2 121 9.9
2011-06-01 09:48:14 51°13.65 2°55.949 107.9 3.5 108 10.5
2011-06-01 09:49:13 51°13.638 2°56.007 110.8 0.9 109 8.4